Terminal Aerodrome Forecast
Issued by NWS

Home | Current Version | Previous Version | Text Only | Print | Product List | Glossary On
Versions: 1 2 3 4 5 6 7 8 9 10 11 12 13 14 15 16 17 18 19 20 21 22 23 24 25 26 27 28 29 30 31 32 33 34
731
FTUS45 KRIW 221720
TAFLND
TAF
KLND 221720Z 2218/2318 23007KT P6SM SCT045 OVC070
     FM222300 30006KT P6SM SCT080
     FM230200 VRB04KT P6SM SKC
     FM230700 VRB05KT P6SM VCFG FEW002
     FM231400 VRB03KT P6SM SKC=

USA.gov is the U.S. government's official web portal to all federal, state and local government web resources and services.